createdAt,value
2022-12-06T00:01:40.539Z,1.15
2022-12-06T00:04:12.300Z,1.20
2022-12-06T00:06:41.867Z,55.10
2022-12-06T00:09:18.980Z,1.10
2022-12-06T00:11:46.920Z,1.30
2022-12-06T00:14:15.097Z,2.05
2022-12-06T00:16:43.136Z,58.08
2022-12-06T00:19:15.541Z,1.40
2022-12-06T00:21:43.848Z,1.10
2022-12-06T00:24:31.129Z,1.90
2022-12-06T00:26:58.983Z,1.90
2022-12-06T00:29:27.418Z,1.00
2022-12-06T00:31:55.417Z,1.85
2022-12-06T00:34:23.862Z,1.10
2022-12-06T00:36:51.764Z,1.20
2022-12-06T00:39:19.631Z,1.40
2022-12-06T00:41:47.629Z,1.58
2022-12-06T00:44:15.699Z,1.20
2022-12-06T00:46:43.778Z,1.13
2022-12-06T00:49:11.751Z,1.30
2022-12-06T00:51:42.654Z,1.27
2022-12-06T00:54:14.764Z,1.83
2022-12-06T00:56:42.713Z,14.25
2022-12-06T00:59:11.370Z,1.33
2022-12-06T01:01:39.419Z,1.20
2022-12-06T01:04:07.710Z,0.85
2022-12-06T01:06:36.137Z,1.13
2022-12-06T01:09:11.264Z,45.65
2022-12-06T01:11:39.381Z,1.25
2022-12-06T01:14:08.836Z,1.42
2022-12-06T01:16:36.861Z,1.80
2022-12-06T01:19:05.834Z,1.40
2022-12-06T01:21:34.250Z,1.35
2022-12-06T01:24:03.042Z,3.33
2022-12-06T01:26:35.203Z,1.30
2022-12-06T01:29:03.197Z,4.53
2022-12-06T01:31:37.722Z,1.45
2022-12-06T01:34:06.600Z,1.35
2022-12-06T01:36:34.615Z,1.52
2022-12-06T01:39:06.881Z,1.02
2022-12-06T01:41:35.100Z,1.30
2022-12-06T01:44:03.069Z,2.13
2022-12-06T01:46:45.822Z,1.10
2022-12-06T01:49:13.624Z,1.20
2022-12-06T01:51:45.053Z,1.25
2022-12-06T01:54:16.993Z,1.30
2022-12-06T01:56:45.181Z,1.27
2022-12-06T01:59:13.193Z,1.30
2022-12-06T02:01:41.665Z,2.15
2022-12-06T02:04:10.114Z,2.95
2022-12-06T02:06:43.869Z,13.82
2022-12-06T02:09:12.377Z,24.67
2022-12-06T02:11:40.376Z,1.20
2022-12-06T02:14:14.513Z,14.80
2022-12-06T02:17:00.888Z,1.58
2022-12-06T02:19:48.426Z,1.67
2022-12-06T02:22:35.494Z,1.33
2022-12-06T02:25:17.915Z,1.13
2022-12-06T02:27:56.589Z,1.40
2022-12-06T02:30:47.968Z,2.03
2022-12-06T02:33:17.974Z,1.60
2022-12-06T02:35:49.943Z,1.50
2022-12-06T02:38:33.683Z,1.83
2022-12-06T02:41:07.871Z,0.93
2022-12-06T02:43:41.994Z,2.10
2022-12-06T02:46:11.496Z,1.38
2022-12-06T02:48:39.408Z,1.42
2022-12-06T02:51:18.397Z,1.27
2022-12-06T02:53:48.408Z,1.30
2022-12-06T02:56:20.833Z,1.48
2022-12-06T02:58:48.716Z,1.42
2022-12-06T03:01:20.615Z,1.38
2022-12-06T03:03:48.541Z,1.38
2022-12-06T03:06:34.670Z,1.27
2022-12-06T03:09:05.568Z,1.40
2022-12-06T03:12:04.270Z,1.30
2022-12-06T03:15:13.147Z,2.40
2022-12-06T03:17:40.822Z,1.75
2022-12-06T03:20:29.169Z,1.40
2022-12-06T03:23:05.955Z,1.85
2022-12-06T03:25:36.718Z,1.60
2022-12-06T03:28:05.763Z,1.38
2022-12-06T03:30:36.679Z,1.20
2022-12-06T03:33:04.764Z,1.50
2022-12-06T03:35:33.847Z,1.52
2022-12-06T03:38:07.536Z,1.95
2022-12-06T03:40:39.626Z,1.98
2022-12-06T03:43:10.520Z,1.80
2022-12-06T03:45:41.254Z,1.55
2022-12-06T03:48:14.140Z,2.63
2022-12-06T03:50:55.417Z,1.50
2022-12-06T03:53:26.361Z,1.48
2022-12-06T03:55:54.597Z,1.60
2022-12-06T03:58:22.638Z,2.95
2022-12-06T04:00:50.628Z,1.65
2022-12-06T04:03:21.632Z,1.35
2022-12-06T04:05:49.621Z,1.90
2022-12-06T04:08:20.728Z,1.48
2022-12-06T04:10:48.643Z,1.30
2022-12-06T04:13:19.779Z,1.38
2022-12-06T04:15:48.120Z,2.13
2022-12-06T04:18:16.525Z,1.10
2022-12-06T04:21:16.617Z,1.95
2022-12-06T04:23:50.645Z,1.42
2022-12-06T04:26:21.611Z,1.55
2022-12-06T04:29:08.496Z,1.63
2022-12-06T04:31:54.743Z,1.75
2022-12-06T04:34:41.515Z,1.42
2022-12-06T04:37:32.564Z,1.77
2022-12-06T04:40:05.511Z,1.52
2022-12-06T04:42:51.690Z,2.97
2022-12-06T04:45:19.602Z,3.45
2022-12-06T04:47:47.560Z,1.27
2022-12-06T04:50:18.634Z,1.83
2022-12-06T04:52:48.846Z,1.63
2022-12-06T04:57:50.042Z,2.17
2022-12-06T05:00:20.938Z,2.08
2022-12-06T05:02:48.883Z,2.45
2022-12-06T05:05:16.686Z,1.75
2022-12-06T05:07:47.078Z,2.30
2022-12-06T05:10:15.139Z,2.10
2022-12-06T05:12:42.997Z,1.67
2022-12-06T05:15:15.977Z,1.25
2022-12-06T05:17:44.099Z,2.22
2022-12-06T05:20:12.215Z,2.55
2022-12-06T05:22:43.521Z,3.10
2022-12-06T05:25:11.907Z,2.58
2022-12-06T05:27:42.187Z,1.85
2022-12-06T05:32:44.718Z,1.83
2022-12-06T05:35:12.669Z,1.80
2022-12-06T05:37:45.780Z,2.75
2022-12-06T05:40:13.777Z,2.08
2022-12-06T05:42:44.620Z,2.85
2022-12-06T05:45:12.773Z,1.55
2022-12-06T05:47:42.946Z,2.65
2022-12-06T05:52:39.362Z,1.65
2022-12-06T05:55:07.314Z,2.10
2022-12-06T05:57:42.455Z,2.25
2022-12-06T06:00:14.115Z,3.83
2022-12-06T06:02:42.228Z,2.95
2022-12-06T06:05:10.346Z,7.00
2022-12-06T06:07:40.354Z,4.97
2022-12-06T06:10:08.707Z,4.32
2022-12-06T06:12:36.657Z,3.72
2022-12-06T06:15:07.943Z,2.65
2022-12-06T06:17:36.505Z,5.95
2022-12-06T06:20:08.049Z,3.85
2022-12-06T06:22:36.775Z,4.82
2022-12-06T06:25:07.735Z,8.55
2022-12-06T06:27:39.046Z,1.55
2022-12-06T06:30:07.353Z,5.45
2022-12-06T06:32:35.412Z,5.10
2022-12-06T06:35:11.174Z,6.05
2022-12-06T06:37:39.098Z,3.50
2022-12-06T06:40:11.512Z,5.57
2022-12-06T06:42:41.814Z,4.05
2022-12-06T06:47:37.713Z,3.15
2022-12-06T06:50:05.945Z,4.43
2022-12-06T06:52:33.944Z,4.30
2022-12-06T06:55:04.267Z,4.07
2022-12-06T07:00:03.709Z,3.28
2022-12-06T07:02:32.448Z,3.58
2022-12-06T07:05:00.457Z,5.85
2022-12-06T07:07:28.661Z,4.25
2022-12-06T07:09:56.629Z,5.32
2022-12-06T07:12:24.460Z,7.38
2022-12-06T07:14:52.392Z,3.88
2022-12-06T07:17:24.800Z,9.25
2022-12-06T07:19:52.621Z,9.98
2022-12-06T07:22:21.391Z,8.25
2022-12-06T07:24:52.550Z,9.70
2022-12-06T07:27:20.632Z,5.40
2022-12-06T07:29:49.740Z,4.15
2022-12-06T07:32:20.422Z,8.02
2022-12-06T07:34:49.966Z,6.38
2022-12-06T07:37:20.566Z,6.20
2022-12-06T07:39:49.105Z,8.27
2022-12-06T07:42:35.451Z,7.55
2022-12-06T07:45:05.711Z,9.15
2022-12-06T07:50:05.954Z,26.95
2022-12-06T07:52:37.408Z,18.90
2022-12-06T07:55:06.228Z,11.57
2022-12-06T07:57:38.678Z,14.48
2022-12-06T08:00:13.039Z,27.48
2022-12-06T08:02:41.469Z,29.40
2022-12-06T08:05:10.207Z,33.33
2022-12-06T08:07:38.783Z,14.70
2022-12-06T08:10:07.478Z,17.40
2022-12-06T08:12:35.694Z,8.30
2022-12-06T08:15:04.229Z,20.33
2022-12-06T08:17:32.419Z,4.88
2022-12-06T08:20:00.598Z,11.30
2022-12-06T08:22:29.286Z,6.93
2022-12-06T08:24:59.274Z,4.97
2022-12-06T08:27:27.188Z,11.55
2022-12-06T08:29:57.748Z,12.05
2022-12-06T08:32:26.071Z,13.02
2022-12-06T08:34:54.131Z,10.95
2022-12-06T08:37:22.185Z,25.30
2022-12-06T08:39:50.844Z,16.90
2022-12-06T08:42:25.229Z,5.85
2022-12-06T08:44:54.695Z,39.40
2022-12-06T08:47:25.124Z,37.65
2022-12-06T08:49:53.082Z,24.67
2022-12-06T08:52:21.288Z,43.00
2022-12-06T08:54:52.214Z,46.38
2022-12-06T08:57:24.263Z,36.60
2022-12-06T08:59:53.046Z,50.58
2022-12-06T09:02:21.376Z,34.75
2022-12-06T09:04:51.931Z,46.22
2022-12-06T09:07:20.674Z,47.97
2022-12-06T09:09:49.170Z,51.60
2022-12-06T09:12:20.782Z,23.52
2022-12-06T09:14:48.734Z,45.20
2022-12-06T09:17:17.928Z,53.33
2022-12-06T09:19:52.310Z,41.80
2022-12-06T09:22:20.603Z,40.55
2022-12-06T09:24:49.121Z,52.63
2022-12-06T09:27:17.665Z,57.22
2022-12-06T09:29:46.162Z,44.70
2022-12-06T09:32:14.339Z,54.05
2022-12-06T09:34:42.413Z,59.08
2022-12-06T09:37:12.840Z,45.95
2022-12-06T09:39:45.620Z,40.88
2022-12-06T09:42:31.490Z,39.25
2022-12-06T09:44:59.048Z,58.60
2022-12-06T09:47:45.386Z,68.18
2022-12-06T09:50:54.092Z,70.38
2022-12-06T09:53:28.647Z,63.03
2022-12-06T09:56:24.445Z,35.88
2022-12-06T09:59:07.852Z,64.82
2022-12-06T10:02:00.869Z,52.72
2022-12-06T10:05:11.348Z,56.97
2022-12-06T10:07:51.763Z,67.43
2022-12-06T10:10:27.564Z,62.00
2022-12-06T10:12:58.978Z,55.60
2022-12-06T10:15:51.545Z,44.05
2022-12-06T10:18:28.501Z,67.68
2022-12-06T10:21:10.969Z,55.35
2022-12-06T10:23:42.776Z,46.08
2022-12-06T10:26:14.596Z,60.25
2022-12-06T10:28:47.515Z,64.65
2022-12-06T10:31:15.404Z,60.40
2022-12-06T10:33:55.685Z,54.63
2022-12-06T10:36:38.559Z,67.28
2022-12-06T10:39:12.925Z,59.13
2022-12-06T10:42:03.885Z,71.20
2022-12-06T10:44:34.927Z,67.75
2022-12-06T10:47:09.873Z,66.30
2022-12-06T10:49:54.625Z,74.35
2022-12-06T10:52:22.515Z,86.63
2022-12-06T10:55:10.266Z,79.20
2022-12-06T10:57:56.799Z,94.38
2022-12-06T11:00:26.058Z,84.82
2022-12-06T11:03:20.683Z,77.80
2022-12-06T11:05:55.897Z,81.43
2022-12-06T11:08:29.748Z,82.60
2022-12-06T11:10:59.412Z,97.80
2022-12-06T11:13:43.712Z,102.57
2022-12-06T11:16:46.698Z,77.00
2022-12-06T11:19:52.867Z,88.55
2022-12-06T11:22:24.278Z,60.95
2022-12-06T11:25:26.361Z,58.58
2022-12-06T11:27:57.309Z,78.63
2022-12-06T11:30:25.779Z,77.65
2022-12-06T11:32:53.704Z,80.25
2022-12-06T11:35:24.398Z,72.72
2022-12-06T11:37:56.083Z,68.88
2022-12-06T11:40:23.880Z,80.65
2022-12-06T11:42:51.952Z,4.00
2022-12-06T11:45:31.046Z,50.42
2022-12-06T11:47:59.668Z,54.28
2022-12-06T11:50:30.382Z,59.55
2022-12-06T11:52:58.985Z,66.93
2022-12-06T11:55:41.364Z,44.40
2022-12-06T11:58:17.991Z,65.43
2022-12-06T12:00:58.040Z,66.35
2022-12-06T12:03:45.036Z,90.22
2022-12-06T12:06:22.117Z,96.00
2022-12-06T12:08:58.246Z,108.35
2022-12-06T12:11:27.683Z,58.53
2022-12-06T12:14:16.319Z,63.80
2022-12-06T12:16:46.651Z,60.20
2022-12-06T12:19:46.480Z,89.78
2022-12-06T12:22:40.533Z,88.70
2022-12-06T12:25:36.763Z,100.22
2022-12-06T12:28:27.072Z,104.03
2022-12-06T12:30:59.966Z,3.05
2022-12-06T12:33:28.812Z,5.03
2022-12-06T12:36:08.175Z,74.00
2022-12-06T12:38:51.685Z,4.00
2022-12-06T12:41:24.996Z,2.83
2022-12-06T12:44:38.846Z,35.33
2022-12-06T12:47:20.811Z,38.97
2022-12-06T12:50:06.206Z,29.42
2022-12-06T12:52:39.514Z,51.17
2022-12-06T12:55:24.432Z,56.78
2022-12-06T12:57:57.773Z,54.63
2022-12-06T13:00:38.044Z,79.97
2022-12-06T13:03:35.040Z,100.53
2022-12-06T13:05:59.487Z,90.93
2022-12-06T13:08:35.033Z,75.07
2022-12-06T13:11:05.472Z,80.82
2022-12-06T13:13:48.617Z,102.53
2022-12-06T13:16:20.091Z,98.50
2022-12-06T13:18:57.144Z,77.88
2022-12-06T13:21:28.966Z,66.90
2022-12-06T13:24:30.464Z,47.10
2022-12-06T13:27:12.959Z,88.32
2022-12-06T13:30:17.025Z,57.10
2022-12-06T13:32:55.958Z,82.80
2022-12-06T13:35:29.022Z,98.15
2022-12-06T13:38:03.532Z,82.20
2022-12-06T13:40:34.547Z,71.30
2022-12-06T13:43:06.778Z,8.05
2022-12-06T13:45:35.036Z,4.97
2022-12-06T13:48:02.948Z,17.83
2022-12-06T13:50:37.083Z,68.22
2022-12-06T13:53:04.977Z,4.82
2022-12-06T13:55:39.007Z,3.85
2022-12-06T13:58:10.190Z,6.38
2022-12-06T14:00:41.085Z,48.75
2022-12-06T14:03:14.888Z,3.10
2022-12-06T14:06:07.349Z,5.30
2022-12-06T14:08:45.114Z,9.13
2022-12-06T14:11:18.110Z,60.95
2022-12-06T14:13:48.915Z,62.35
2022-12-06T14:16:33.517Z,54.13
2022-12-06T14:19:01.833Z,49.67
2022-12-06T14:21:37.497Z,74.05
2022-12-06T14:24:06.140Z,66.70
2022-12-06T14:26:35.550Z,73.28
2022-12-06T14:29:03.522Z,88.05
2022-12-06T14:31:34.281Z,62.78
2022-12-06T14:34:02.282Z,80.60
2022-12-06T14:36:40.125Z,25.55
2022-12-06T14:39:09.017Z,74.40
2022-12-06T14:41:57.556Z,63.75
2022-12-06T14:44:30.006Z,110.07
2022-12-06T14:46:58.267Z,48.67
2022-12-06T14:49:45.314Z,91.63
2022-12-06T14:52:19.273Z,2.85
2022-12-06T14:54:47.254Z,1.75
2022-12-06T14:57:30.913Z,1.95
2022-12-06T15:00:18.388Z,3.38
2022-12-06T15:03:01.064Z,4.68
2022-12-06T15:05:46.109Z,3.15
2022-12-06T15:08:26.134Z,3.15
2022-12-06T15:11:43.230Z,3.13
2022-12-06T15:14:17.872Z,3.65
2022-12-06T15:16:47.269Z,2.75
2022-12-06T15:19:16.706Z,3.45
2022-12-06T15:21:44.666Z,52.70
2022-12-06T15:24:33.083Z,3.67
2022-12-06T15:27:01.062Z,3.90
2022-12-06T15:29:28.903Z,2.40
2022-12-06T15:31:56.772Z,3.50
2022-12-06T15:34:31.507Z,86.60
2022-12-06T15:37:38.269Z,3.30
2022-12-06T15:39:48.676Z,2.70
2022-12-06T15:42:21.036Z,1.70
2022-12-06T15:44:50.118Z,2.38
2022-12-06T15:47:18.773Z,1.60
2022-12-06T15:49:47.150Z,2.95
2022-12-06T15:52:19.009Z,86.10
2022-12-06T15:54:46.810Z,86.25
2022-12-06T15:57:16.996Z,78.57
2022-12-06T16:02:17.397Z,90.43
2022-12-06T16:04:48.566Z,93.05
2022-12-06T16:07:19.292Z,67.10
2022-12-06T16:09:47.574Z,84.63
2022-12-06T16:12:15.649Z,99.97
2022-12-06T16:14:43.618Z,107.03
2022-12-06T16:17:11.561Z,109.47
2022-12-06T16:19:58.402Z,60.17
2022-12-06T16:22:59.401Z,58.88
2022-12-06T16:25:27.447Z,72.05
2022-12-06T16:27:55.882Z,107.93
2022-12-06T16:30:34.501Z,90.25
2022-12-06T16:33:07.297Z,87.65
2022-12-06T16:35:35.635Z,103.70
2022-12-06T16:38:03.590Z,111.63
2022-12-06T16:40:33.616Z,118.45
2022-12-06T16:43:01.722Z,115.85
2022-12-06T16:45:29.689Z,105.10
2022-12-06T16:47:57.600Z,91.28
2022-12-06T16:50:26.942Z,85.95
2022-12-06T16:52:59.476Z,93.70
2022-12-06T16:55:27.434Z,93.53
2022-12-06T16:57:55.229Z,92.65
2022-12-06T17:00:23.331Z,105.68
2022-12-06T17:02:51.416Z,121.03
2022-12-06T17:05:24.492Z,117.20
2022-12-06T17:07:53.065Z,114.97
2022-12-06T17:10:21.739Z,90.30
2022-12-06T17:12:50.446Z,73.95
2022-12-06T17:15:19.676Z,67.03
2022-12-06T17:17:47.557Z,63.22
2022-12-06T17:20:16.067Z,73.18
2022-12-06T17:22:44.500Z,69.95
2022-12-06T17:25:13.242Z,73.85
2022-12-06T17:27:42.650Z,98.50
2022-12-06T17:30:17.823Z,97.82
2022-12-06T17:32:47.243Z,116.68
2022-12-06T17:35:18.156Z,104.88
2022-12-06T17:37:46.024Z,108.25
2022-12-06T17:40:14.337Z,115.13
2022-12-06T17:43:02.007Z,121.88
2022-12-06T17:45:48.201Z,123.28
2022-12-06T17:48:16.111Z,110.18
2022-12-06T17:50:44.190Z,139.80
2022-12-06T17:53:12.165Z,139.43
2022-12-06T17:55:39.957Z,147.77
2022-12-06T17:58:07.852Z,145.93
2022-12-06T18:00:35.913Z,129.80
2022-12-06T18:03:03.974Z,134.10
2022-12-06T18:05:33.473Z,119.00
2022-12-06T18:08:01.427Z,109.90
2022-12-06T18:10:29.382Z,132.73
2022-12-06T18:13:02.670Z,137.68
2022-12-06T18:15:39.809Z,139.70
2022-12-06T18:18:07.868Z,1.35
2022-12-06T18:20:36.041Z,1.13
2022-12-06T18:23:04.020Z,0.95
2022-12-06T18:25:33.506Z,91.00
2022-12-06T18:28:04.635Z,121.45
2022-12-06T18:30:32.571Z,130.98
2022-12-06T18:33:03.849Z,69.28
2022-12-06T18:35:31.930Z,122.53
2022-12-06T18:38:00.099Z,1.00
2022-12-06T18:40:27.963Z,0.85
2022-12-06T18:42:55.890Z,1.20
2022-12-06T18:45:23.711Z,0.85
2022-12-06T18:47:51.709Z,1.00
2022-12-06T18:50:19.837Z,1.30
2022-12-06T18:52:50.048Z,0.75
2022-12-06T18:57:45.610Z,1.13
2022-12-06T19:00:13.735Z,1.27
2022-12-06T19:02:41.617Z,0.80
2022-12-06T19:05:09.582Z,0.95
2022-12-06T19:07:37.835Z,0.82
2022-12-06T19:10:05.895Z,0.88
2022-12-06T19:12:33.650Z,0.85
2022-12-06T19:15:01.455Z,0.85
2022-12-06T19:17:29.386Z,1.05
2022-12-06T19:19:57.333Z,1.00
2022-12-06T19:22:25.783Z,1.30
2022-12-06T19:24:56.455Z,1.08
2022-12-06T19:27:24.400Z,0.82
2022-12-06T19:29:52.262Z,0.70
2022-12-06T19:32:20.039Z,1.25
2022-12-06T19:34:47.855Z,1.02
2022-12-06T19:37:15.622Z,0.88
2022-12-06T19:39:44.110Z,0.90
2022-12-06T19:42:30.555Z,1.02
2022-12-06T19:44:58.494Z,1.10
2022-12-06T19:47:26.294Z,1.17
2022-12-06T19:49:54.199Z,1.20
2022-12-06T19:52:25.392Z,0.70
2022-12-06T19:54:57.566Z,1.13
2022-12-06T19:57:25.436Z,8.55
2022-12-06T19:59:55.342Z,0.77
2022-12-06T20:02:23.480Z,0.98
2022-12-06T20:04:51.386Z,14.38
2022-12-06T20:07:19.186Z,24.73
2022-12-06T20:09:47.539Z,1.65
2022-12-06T20:12:15.282Z,14.65
2022-12-06T20:14:48.221Z,2.67
2022-12-06T20:17:25.102Z,1.00
2022-12-06T20:19:53.070Z,1.08
2022-12-06T20:22:22.888Z,0.70
2022-12-06T20:24:51.276Z,0.90
2022-12-06T20:27:39.268Z,1.05
2022-12-06T20:30:07.358Z,1.10
2022-12-06T20:32:35.188Z,0.75
2022-12-06T20:35:03.269Z,1.35
2022-12-06T20:37:31.300Z,0.68
2022-12-06T20:39:59.545Z,1.20
2022-12-06T20:42:28.853Z,1.00
2022-12-06T20:44:56.678Z,1.00
2022-12-06T20:47:24.540Z,0.90
2022-12-06T20:49:52.829Z,1.13
2022-12-06T20:52:23.905Z,1.10
2022-12-06T20:54:51.824Z,0.90
2022-12-06T20:57:21.853Z,1.08
2022-12-06T20:59:49.597Z,0.98
2022-12-06T21:02:17.483Z,0.80
2022-12-06T21:04:45.302Z,1.02
2022-12-06T21:07:13.193Z,0.80
2022-12-06T21:09:40.995Z,0.80
2022-12-06T21:12:08.923Z,1.20
2022-12-06T21:14:36.809Z,0.75
2022-12-06T21:17:04.631Z,1.00
2022-12-06T21:19:36.330Z,0.95
2022-12-06T21:22:08.182Z,1.00
2022-12-06T21:24:36.593Z,0.95
2022-12-06T21:27:04.610Z,0.93
2022-12-06T21:29:36.436Z,1.10
2022-12-06T21:32:04.218Z,0.95
2022-12-06T21:34:32.287Z,0.82
2022-12-06T21:37:00.198Z,0.90
2022-12-06T21:39:28.035Z,0.93
2022-12-06T21:41:56.014Z,0.85
2022-12-06T21:44:23.981Z,0.98
2022-12-06T21:46:52.558Z,0.80
2022-12-06T21:49:20.579Z,0.60
2022-12-06T21:51:48.472Z,0.90
2022-12-06T21:54:16.345Z,0.80
2022-12-06T21:56:44.259Z,0.90
2022-12-06T21:59:12.029Z,0.60
2022-12-06T22:01:39.750Z,1.00
2022-12-06T22:04:07.710Z,0.98
2022-12-06T22:06:37.058Z,0.70
2022-12-06T22:09:06.327Z,0.90
2022-12-06T22:11:34.795Z,1.20
2022-12-06T22:14:04.839Z,0.95
2022-12-06T22:16:33.354Z,0.80
2022-12-06T22:19:01.292Z,0.85
2022-12-06T22:21:31.777Z,0.68
2022-12-06T22:24:00.369Z,0.73
2022-12-06T22:26:30.019Z,0.75
2022-12-06T22:29:01.308Z,1.17
2022-12-06T22:31:31.218Z,0.70
2022-12-06T22:33:59.247Z,0.70
2022-12-06T22:36:27.376Z,0.80
2022-12-06T22:38:57.024Z,1.10
2022-12-06T22:41:25.257Z,0.57
2022-12-06T22:43:54.642Z,1.00
2022-12-06T22:46:22.897Z,1.05
2022-12-06T22:48:51.502Z,1.27
2022-12-06T22:51:22.116Z,0.98
2022-12-06T22:53:57.354Z,1.02
2022-12-06T22:56:25.695Z,0.75
2022-12-06T22:58:54.850Z,1.02
2022-12-06T23:01:24.831Z,0.55
2022-12-06T23:03:53.316Z,0.98
2022-12-06T23:06:23.455Z,0.73
2022-12-06T23:08:51.429Z,0.65
2022-12-06T23:11:23.632Z,0.82
2022-12-06T23:13:52.643Z,1.15
2022-12-06T23:16:21.747Z,0.88
2022-12-06T23:18:49.800Z,0.90
2022-12-06T23:21:25.334Z,1.08
2022-12-06T23:23:54.601Z,1.00
2022-12-06T23:26:24.087Z,0.77
2022-12-06T23:28:51.949Z,0.88
2022-12-06T23:31:28.501Z,0.90
2022-12-06T23:33:59.339Z,0.60
2022-12-06T23:36:30.299Z,0.88
2022-12-06T23:38:58.310Z,1.13
2022-12-06T23:41:27.345Z,1.30
2022-12-06T23:43:55.659Z,0.60
2022-12-06T23:46:24.841Z,38.03
2022-12-06T23:48:52.991Z,0.70
2022-12-06T23:51:22.381Z,1.00
2022-12-06T23:53:58.885Z,0.98
2022-12-06T23:58:58.787Z,0.95
